Time;durP1;ratioP1;P1;durP2;ratioP2;P2;SDS_P1;SDS_P2;PMS_P1;PMS_P2;Temp;Humidity;BMP_temperature;BMP_pressure;BME280_temperature;BME280_humidity;BME280_pressure;Samples;Min_cycle;Max_cycle;Signal;HPM_P1;HPM_P2
2023/07/08 08:57:43;;;;;;;11.35;6.00;;;;;;;24.68;49.71;101392.00;5106699;27;20473;-65
2023/07/08 09:00:11;;;;;;;8.35;6.10;;;;;;;24.62;48.36;101390.47;5098252;28;20047;-66
2023/07/08 09:02:58;;;;;;;11.98;6.00;;;;;;;24.77;48.95;101400.41;5087060;28;20105;-66
2023/07/08 09:05:24;;;;;;;12.07;5.90;;;;;;;24.84;48.27;101398.06;5088389;28;20034;-67
2023/07/08 09:08:14;;;;;;;9.52;5.97;;;;;;;24.91;49.74;101405.94;5089749;28;20367;-66
2023/07/08 09:10:51;;;;;;;7.60;6.22;;;;;;;25.09;48.30;101398.63;5090570;28;20500;-67
2023/07/08 09:13:25;;;;;;;9.02;6.25;;;;;;;25.04;46.48;101396.78;5088845;28;20033;-66
2023/07/08 09:16:13;;;;;;;7.93;5.55;;;;;;;25.21;48.49;101392.56;5100145;28;20182;-67
2023/07/08 09:18:48;;;;;;;9.10;5.90;;;;;;;25.42;47.08;101384.63;5089698;28;20119;-67
2023/07/08 09:21:21;;;;;;;8.75;6.35;;;;;;;25.59;46.19;101384.78;5089778;28;20546;-66
2023/07/08 09:23:50;;;;;;;11.27;5.85;;;;;;;25.73;46.41;101370.84;5087041;28;20035;-67
2023/07/08 09:26:19;;;;;;;13.20;6.28;;;;;;;25.85;46.17;101378.59;5079186;28;20430;-66
2023/07/08 09:28:46;;;;;;;12.48;6.60;;;;;;;25.95;44.58;101388.59;5072999;28;20020;-67
2023/07/08 09:31:31;;;;;;;8.95;5.90;;;;;;;25.90;45.75;101386.78;5103624;28;20028;-67
2023/07/08 09:34:16;;;;;;;9.35;5.85;;;;;;;25.93;45.76;101388.09;5089175;28;20063;-67
2023/07/08 09:36:45;;;;;;;10.82;6.47;;;;;;;26.26;43.93;101382.28;5094580;28;20028;-67
2023/07/08 09:39:16;;;;;;;9.32;5.72;;;;;;;26.38;46.13;101373.38;5088364;28;20051;-67
2023/07/08 09:42:19;;;;;;;10.25;6.40;;;;;;;26.32;44.54;101370.72;5079793;28;20415;-67
2023/07/08 09:44:45;;;;;;;11.98;6.38;;;;;;;26.48;44.36;101364.75;5088755;28;20100;-67
2023/07/08 09:47:23;;;;;;;8.70;6.72;;;;;;;26.51;44.92;101362.16;5088931;28;20099;-67
2023/07/08 09:49:48;;;;;;;8.52;5.88;;;;;;;26.48;43.95;101360.03;5087677;28;20103;-67
2023/07/08 09:52:15;;;;;;;8.57;6.10;;;;;;;26.62;44.67;101368.22;5088708;28;20029;-67
2023/07/08 09:54:41;;;;;;;10.32;6.47;;;;;;;26.72;45.24;101360.78;5084089;28;20126;-67
2023/07/08 09:57:21;;;;;;;9.00;5.97;;;;;;;26.85;46.50;101366.19;5086765;28;20054;-67
2023/07/08 09:59:49;;;;;;;8.60;6.40;;;;;;;27.03;44.07;101366.22;5088809;28;20024;-67
2023/07/08 10:02:26;;;;;;;7.40;6.10;;;;;;;27.09;43.66;101373.25;5076480;28;20039;-67
2023/07/08 10:04:55;;;;;;;12.52;6.97;;;;;;;27.18;43.16;101364.94;5088617;28;20103;-67
2023/07/08 10:07:20;;;;;;;9.63;6.72;;;;;;;27.24;42.79;101360.84;5081235;28;20037;-67
2023/07/08 10:09:53;;;;;;;9.77;6.60;;;;;;;27.23;44.29;101362.00;5056503;28;20039;-67
2023/07/08 10:12:20;;;;;;;10.13;6.20;;;;;;;27.44;43.53;101370.53;5075247;28;20024;-67
2023/07/08 10:14:50;;;;;;;9.15;6.35;;;;;;;27.60;43.79;101370.84;5074796;28;20111;-67
2023/07/08 10:17:18;;;;;;;13.38;6.53;;;;;;;27.60;42.56;101368.06;5075086;28;20112;-67
2023/07/08 10:19:43;;;;;;;8.48;6.35;;;;;;;27.67;43.06;101365.59;5075102;28;20083;-67
2023/07/08 10:22:47;;;;;;;9.20;6.38;;;;;;;27.76;44.17;101373.94;5056242;28;20380;-67
2023/07/08 10:25:27;;;;;;;9.70;6.28;;;;;;;27.90;42.71;101368.16;5058529;28;20088;-67
2023/07/08 10:28:13;;;;;;;8.40;5.80;;;;;;;27.91;43.32;101362.28;5063328;28;20115;-67
2023/07/08 10:30:47;;;;;;;15.38;6.40;;;;;;;28.07;43.48;101365.38;5074496;28;20350;-67
2023/07/08 10:33:48;;;;;;;14.20;6.32;;;;;;;28.09;43.80;101368.63;5073484;28;20498;-70
2023/07/08 10:36:42;;;;;;;11.82;6.20;;;;;;;28.21;42.52;101369.94;5050747;28;20044;-67
2023/07/08 10:39:26;;;;;;;13.80;6.72;;;;;;;28.34;42.81;101373.63;5074330;28;20036;-67
2023/07/08 10:42:07;;;;;;;9.25;6.20;;;;;;;28.62;41.05;101374.03;5069038;28;20032;-67
2023/07/08 10:44:50;;;;;;;11.13;6.47;;;;;;;28.73;40.70;101369.72;5074659;28;20028;-67
2023/07/08 10:47:43;;;;;;;9.68;5.97;;;;;;;28.76;41.23;101376.56;5068889;28;20037;-66
2023/07/08 10:50:14;;;;;;;7.80;6.38;;;;;;;28.80;41.19;101375.56;5074300;28;20178;-67
2023/07/08 10:52:42;;;;;;;11.88;6.18;;;;;;;28.84;40.16;101380.44;5074749;28;20021;-67
2023/07/08 10:55:49;;;;;;;9.55;6.50;;;;;;;28.89;38.49;101377.47;5073641;28;20357;-67
2023/07/08 10:58:35;;;;;;;9.88;6.22;;;;;;;29.00;38.28;101389.84;5073599;28;20499;-68
2023/07/08 11:01:10;;;;;;;11.30;6.40;;;;;;;29.04;37.78;101385.25;5069058;28;20042;-67
2023/07/08 11:04:07;;;;;;;10.57;6.25;;;;;;;29.31;38.04;101371.97;5070303;28;20032;-67
2023/07/08 11:06:55;;;;;;;9.63;5.63;;;;;;;29.36;36.82;101379.31;5069516;28;20467;-67
2023/07/08 11:09:28;;;;;;;10.80;6.10;;;;;;;29.43;35.59;101374.00;5072514;28;20032;-67
2023/07/08 11:11:59;;;;;;;9.50;5.75;;;;;;;29.60;39.41;101365.47;5071740;28;20032;-67
2023/07/08 11:14:37;;;;;;;7.00;5.88;;;;;;;29.68;39.31;101372.94;5067021;28;20033;-68
2023/07/08 11:17:08;;;;;;;10.75;6.57;;;;;;;29.73;36.15;101371.91;5065025;28;20032;-67
2023/07/08 11:19:40;;;;;;;11.65;6.25;;;;;;;29.81;35.85;101371.03;5068643;28;20063;-67
2023/07/08 11:22:11;;;;;;;10.48;6.25;;;;;;;29.86;36.72;101370.00;5073669;28;20457;-67
2023/07/08 11:24:47;;;;;;;17.98;6.82;;;;;;;29.94;37.95;101368.25;5073486;28;20423;-67
2023/07/08 11:27:21;;;;;;;9.50;5.97;;;;;;;30.06;35.84;101376.69;5073832;28;20115;-68
2023/07/08 11:29:53;;;;;;;8.63;6.07;;;;;;;30.15;33.95;101366.22;5073802;28;20035;-67
2023/07/08 11:32:21;;;;;;;13.30;6.07;;;;;;;30.23;33.92;101370.88;5053591;28;20033;-67
2023/07/08 11:34:51;;;;;;;11.30;5.85;;;;;;;30.48;34.40;101368.16;5059819;28;20068;-67
2023/07/08 11:37:20;;;;;;;9.57;5.90;;;;;;;30.55;34.61;101375.94;5068491;28;20036;-68
2023/07/08 11:39:46;;;;;;;8.88;5.97;;;;;;;30.64;34.50;101365.44;5072214;28;20029;-67
2023/07/08 11:42:17;;;;;;;8.10;5.72;;;;;;;30.58;34.62;101364.06;5073020;28;20513;-68
2023/07/08 11:44:49;;;;;;;7.30;5.57;;;;;;;30.75;35.65;101363.00;5073459;28;20032;-67
2023/07/08 11:47:32;;;;;;;8.43;5.93;;;;;;;30.86;36.14;101361.38;5073175;28;20032;-68
2023/07/08 11:49:58;;;;;;;10.30;5.80;;;;;;;30.95;33.90;101357.63;5069414;28;20391;-67
2023/07/08 11:52:24;;;;;;;10.90;6.22;;;;;;;31.03;34.14;101353.91;5073603;28;20028;-68
2023/07/08 11:54:57;;;;;;;12.25;5.97;;;;;;;31.08;33.83;101348.88;5073102;28;20112;-67
2023/07/08 11:57:38;;;;;;;9.07;6.15;;;;;;;31.20;34.36;101347.22;5073223;28;20086;-68
2023/07/08 12:00:13;;;;;;;9.35;6.15;;;;;;;31.26;34.90;101349.41;5072987;28;20107;-67
2023/07/08 12:02:53;;;;;;;9.98;5.88;;;;;;;31.34;35.50;101346.81;5069732;28;20016;-67
2023/07/08 12:05:32;;;;;;;6.95;5.68;;;;;;;31.40;34.24;101345.38;5073078;28;20066;-67
2023/07/08 12:08:00;;;;;;;8.45;5.82;;;;;;;31.49;32.79;101342.44;5072104;28;20062;-68
2023/07/08 12:10:33;;;;;;;11.02;5.43;;;;;;;31.48;33.55;101344.44;5073007;28;20064;-68
2023/07/08 12:12:58;;;;;;;10.65;6.30;;;;;;;31.53;32.28;101344.16;5072798;28;20357;-67
2023/07/08 12:15:30;;;;;;;12.98;6.53;;;;;;;31.53;32.32;101332.97;5072549;28;20070;-67
2023/07/08 12:18:01;;;;;;;9.13;6.38;;;;;;;31.62;32.31;101336.47;5071265;28;20058;-67
2023/07/08 12:20:40;;;;;;;9.55;6.03;;;;;;;31.65;32.80;101334.94;5072829;28;20094;-68
2023/07/08 12:23:15;;;;;;;11.63;6.07;;;;;;;31.73;32.22;101341.53;5072666;28;20420;-67
2023/07/08 12:25:40;;;;;;;9.25;6.22;;;;;;;31.68;31.89;101331.44;5070415;28;20628;-68
2023/07/08 12:28:06;;;;;;;10.18;6.38;;;;;;;31.72;32.55;101331.50;5072524;28;20075;-67
2023/07/08 12:30:32;;;;;;;10.80;6.03;;;;;;;31.83;31.74;101332.63;5072576;28;20383;-68
2023/07/08 12:33:00;;;;;;;11.15;6.15;;;;;;;31.95;31.58;101323.34;5070470;28;20040;-67
2023/07/08 12:35:32;;;;;;;14.90;6.28;;;;;;;32.02;31.79;101319.91;5055143;28;20043;-67
2023/07/08 12:38:01;;;;;;;12.55;6.10;;;;;;;32.00;31.58;101317.47;5063424;28;20139;-68
2023/07/08 12:40:28;;;;;;;11.70;6.22;;;;;;;32.06;30.88;101313.22;5067022;28;20774;-68
2023/07/08 12:42:55;;;;;;;7.40;5.60;;;;;;;32.38;31.96;101320.81;5072593;28;20041;-68
2023/07/08 12:45:23;;;;;;;10.93;6.28;;;;;;;32.48;31.44;101321.06;5072749;28;20020;-68
2023/07/08 12:47:49;;;;;;;14.48;6.10;;;;;;;32.58;31.50;101316.91;5072565;28;20118;-68
2023/07/08 12:50:15;;;;;;;11.10;5.72;;;;;;;32.62;30.43;101312.16;5072315;28;20088;-68
2023/07/08 12:52:43;;;;;;;8.02;5.47;;;;;;;32.63;29.38;101311.00;5068982;28;20029;-68
2023/07/08 12:55:10;;;;;;;11.05;5.20;;;;;;;32.74;29.26;101313.25;5071964;28;20123;-68
2023/07/08 12:57:36;;;;;;;14.25;5.97;;;;;;;32.77;28.80;101315.34;5072468;28;20029;-68
2023/07/08 13:00:03;;;;;;;10.63;5.65;;;;;;;32.83;30.04;101305.47;5072213;28;20032;-68
2023/07/08 13:02:31;;;;;;;7.57;5.15;;;;;;;33.17;30.76;101312.19;5069502;28;20115;-68
2023/07/08 13:05:01;;;;;;;9.15;5.00;;;;;;;33.24;31.23;101311.53;5072391;28;20028;-67
2023/07/08 13:07:41;;;;;;;11.23;5.05;;;;;;;33.19;30.01;101309.03;5071770;28;20056;-67
2023/07/08 13:10:08;;;;;;;;;;;;;;;33.18;31.31;101313.78;5070366;28;20037;-68
2023/07/08 13:12:38;;;;;;;10.20;5.20;;;;;;;33.35;29.91;101308.94;5068497;28;19922;-68
2023/07/08 13:15:09;;;;;;;8.27;5.00;;;;;;;33.34;29.40;101312.94;5071917;28;20032;-68
2023/07/08 13:17:37;;;;;;;;;;;;;;;33.38;30.86;101317.44;5072453;28;20410;-68
2023/07/08 13:20:03;;;;;;;7.75;4.80;;;;;;;33.53;29.41;101315.72;5072082;28;19913;-68
2023/07/08 13:22:30;;;;;;;9.02;4.95;;;;;;;33.56;28.75;101320.59;5070847;28;20107;-68
2023/07/08 13:25:00;;;;;;;12.32;5.25;;;;;;;33.68;30.40;101319.63;5071609;28;20033;-68
2023/07/08 13:27:26;;;;;;;;;;;;;;;33.71;30.33;101307.66;5071912;28;20036;-68
2023/07/08 13:30:04;;;;;;;7.57;5.05;;;;;;;33.67;29.52;101308.75;5070862;28;20095;-68
2023/07/08 13:32:31;;;;;;;6.97;4.78;;;;;;;33.93;30.67;101304.44;5071916;28;20418;-68
2023/07/08 13:34:56;;;;;;;12.30;4.80;;;;;;;33.95;29.72;101302.06;5072018;28;20054;-68
2023/07/08 13:37:25;;;;;;;9.77;5.20;;;;;;;33.92;29.24;101309.22;5067730;28;20032;-72
2023/07/08 13:39:53;;;;;;;10.32;4.80;;;;;;;33.98;28.56;101304.91;5060329;28;20036;-68
2023/07/08 13:42:18;;;;;;;7.45;4.70;;;;;;;33.97;29.17;101310.91;5072800;28;20032;-68
2023/07/08 13:44:46;;;;;;;8.82;5.13;;;;;;;33.81;28.44;101302.63;5075797;28;20033;-69
2023/07/08 13:47:28;;;;;;;9.13;5.22;;;;;;;34.02;29.55;101300.16;5070527;28;20077;-68
2023/07/08 13:50:07;;;;;;;9.80;4.90;;;;;;;34.04;29.71;101300.59;5075101;28;20059;-67
2023/07/08 13:52:32;;;;;;;10.45;4.93;;;;;;;34.07;28.79;101308.28;5075527;28;20039;-68
2023/07/08 13:55:04;;;;;;;8.65;4.88;;;;;;;34.19;28.61;101314.88;5075410;28;20115;-68
2023/07/08 13:57:34;;;;;;;11.23;4.97;;;;;;;34.35;28.89;101306.31;5075562;28;20023;-69
2023/07/08 13:59:59;;;;;;;7.93;4.78;;;;;;;34.28;29.29;101312.66;5073440;28;20492;-68
2023/07/08 14:02:31;;;;;;;9.00;4.82;;;;;;;34.08;29.21;101309.91;5073217;28;20024;-68
2023/07/08 14:04:58;;;;;;;9.23;4.90;;;;;;;33.87;29.43;101313.16;5074798;28;20032;-71
2023/07/08 14:07:32;;;;;;;8.95;5.10;;;;;;;33.96;32.02;101298.88;5073241;28;20120;-67
2023/07/08 14:09:57;;;;;;;8.40;5.15;;;;;;;34.07;31.82;101302.66;5075742;28;20055;-68
2023/07/08 14:12:23;;;;;;;7.22;4.55;;;;;;;34.09;27.85;101305.91;5095336;28;20452;-68
2023/07/08 14:14:49;;;;;;;8.25;4.10;;;;;;;34.05;28.13;101298.63;5063959;28;20035;-68
2023/07/08 14:17:22;;;;;;;13.27;4.55;;;;;;;33.96;28.36;101306.50;5054609;28;20035;-66
2023/07/08 14:19:48;;;;;;;10.95;4.53;;;;;;;33.81;28.60;101305.44;5054832;28;20036;-66
2023/07/08 14:22:13;;;;;;;7.45;4.75;;;;;;;33.71;27.90;101299.22;5055154;28;20033;-66
2023/07/08 14:24:39;;;;;;;7.20;4.70;;;;;;;33.51;28.05;101298.44;5055049;28;20479;-66
2023/07/08 14:27:09;;;;;;;8.48;4.47;;;;;;;33.43;29.83;101310.72;5056874;28;20029;-66
2023/07/08 14:29:35;;;;;;;;;;;;;;;33.50;29.37;101318.44;5056558;28;20025;-66
2023/07/08 14:32:01;;;;;;;11.97;5.17;;;;;;;33.57;30.33;101324.22;5054914;28;19915;-66
2023/07/08 14:34:27;;;;;;;9.20;4.63;;;;;;;33.56;30.10;101329.03;5054535;28;20025;-69
2023/07/08 14:36:52;;;;;;;9.60;5.00;;;;;;;33.49;30.17;101316.84;5064241;28;20538;-68
2023/07/08 14:39:18;;;;;;;10.18;4.90;;;;;;;33.60;29.43;101326.28;5074652;28;20486;-69
2023/07/08 14:41:46;;;;;;;11.13;5.00;;;;;;;33.53;30.42;101324.16;5074754;28;20032;-68
2023/07/08 14:44:19;;;;;;;9.95;4.50;;;;;;;33.42;30.66;101339.16;5072093;28;20040;-69
2023/07/08 14:46:44;;;;;;;9.48;5.15;;;;;;;33.49;29.54;101331.69;5074637;28;20032;-69
2023/07/08 14:49:16;;;;;;;10.65;4.90;;;;;;;33.48;29.36;101334.84;5072737;28;20648;-69
2023/07/08 14:51:41;;;;;;;7.45;5.00;;;;;;;33.40;29.45;101331.09;5073970;28;20039;-69
2023/07/08 14:54:06;;;;;;;8.68;5.07;;;;;;;33.41;29.31;101337.50;5072840;28;20021;-68
2023/07/08 14:56:32;;;;;;;8.68;5.03;;;;;;;33.26;31.06;101337.25;5074014;28;20133;-66
2023/07/08 14:58:58;;;;;;;10.07;5.40;;;;;;;33.07;31.26;101340.00;5073413;28;20460;-68
2023/07/08 15:01:24;;;;;;;12.45;5.15;;;;;;;32.93;31.34;101343.28;5070614;28;20035;-66
2023/07/08 15:03:49;;;;;;;7.63;5.07;;;;;;;32.75;32.21;101335.31;5073001;28;20033;-67
2023/07/08 15:06:15;;;;;;;10.45;5.25;;;;;;;32.69;30.93;101342.38;5072750;28;20035;-67
2023/07/08 15:08:40;;;;;;;10.35;5.35;;;;;;;32.54;30.87;101334.81;5073468;28;20107;-66
2023/07/08 15:11:11;;;;;;;7.10;4.80;;;;;;;32.40;30.84;101338.88;5071991;28;20031;-67
2023/07/08 15:13:37;;;;;;;9.32;5.60;;;;;;;32.27;32.60;101331.75;5074177;28;20086;-67
2023/07/08 15:16:03;;;;;;;8.45;5.35;;;;;;;32.23;32.07;101328.84;5073192;28;20037;-67
2023/07/08 15:18:28;;;;;;;12.27;5.30;;;;;;;32.14;32.41;101340.25;5073640;28;20422;-66
2023/07/08 15:20:53;;;;;;;9.43;5.63;;;;;;;32.12;32.34;101347.38;5073714;28;20533;-67
2023/07/08 15:23:19;;;;;;;8.82;5.57;;;;;;;32.03;32.90;101343.91;5073410;28;20017;-67
2023/07/08 15:25:46;;;;;;;9.25;5.75;;;;;;;31.93;32.78;101334.88;5073874;28;20051;-66
2023/07/08 15:28:19;;;;;;;8.88;5.28;;;;;;;31.90;33.15;101344.00;5072350;28;20041;-66
2023/07/08 15:30:45;;;;;;;10.65;5.72;;;;;;;31.75;36.35;101339.19;5071092;28;20098;-66
2023/07/08 15:33:13;;;;;;;7.60;5.53;;;;;;;31.68;35.82;101344.59;5072860;28;20032;-66
2023/07/08 15:35:38;;;;;;;10.30;5.47;;;;;;;31.61;34.73;101340.44;5073631;28;20060;-66
2023/07/08 15:38:05;;;;;;;10.55;5.78;;;;;;;31.48;36.45;101330.47;5073635;28;20424;-67
2023/07/08 15:40:33;;;;;;;7.03;4.57;;;;;;;31.45;34.09;101331.16;5072021;28;20053;-66
2023/07/08 15:43:00;;;;;;;9.57;4.80;;;;;;;31.38;34.13;101340.16;5073534;28;20468;-67
2023/07/08 15:45:29;;;;;;;9.18;4.85;;;;;;;31.27;36.22;101339.03;5072226;28;20060;-66
2023/07/08 15:47:54;;;;;;;10.15;5.32;;;;;;;31.28;35.30;101354.63;5073152;28;20024;-66
2023/07/08 15:50:23;;;;;;;10.63;5.05;;;;;;;31.24;35.87;101354.53;5068669;28;20028;-66
2023/07/08 15:52:49;;;;;;;10.82;5.25;;;;;;;31.19;35.81;101351.19;5072390;28;20079;-66
2023/07/08 15:55:19;;;;;;;11.95;5.68;;;;;;;31.15;36.40;101353.88;5069158;28;21178;-66
2023/07/08 15:57:53;;;;;;;11.82;5.03;;;;;;;31.13;36.38;101356.19;5071289;28;20071;-67
2023/07/08 16:00:25;;;;;;;10.65;4.68;;;;;;;31.12;37.20;101357.38;5071311;28;20036;-66
2023/07/08 16:02:56;;;;;;;13.88;5.10;;;;;;;31.06;37.01;101350.41;5074577;28;20031;-66
2023/07/08 16:05:22;;;;;;;6.97;4.47;;;;;;;30.95;37.43;101357.63;5056446;28;20036;-66
2023/07/08 16:07:51;;;;;;;10.57;5.32;;;;;;;30.87;38.68;101359.38;5055668;28;20364;-65
